createdAt,value
2022-09-15T00:00:59.550Z,97512.75
2022-09-15T00:03:26.388Z,97519.03
2022-09-15T00:05:54.765Z,97526.16
2022-09-15T00:08:23.210Z,97516.94
2022-09-15T00:10:54.862Z,97518.56
2022-09-15T00:13:22.686Z,97511.34
2022-09-15T00:15:49.821Z,97516.09
2022-09-15T00:18:17.526Z,97519.03
2022-09-15T00:20:46.111Z,97526.84
2022-09-15T00:23:15.305Z,97520.22
2022-09-15T00:25:44.565Z,97508.41
2022-09-15T00:28:11.873Z,97520.00
2022-09-15T00:30:46.276Z,97513.13
2022-09-15T00:33:14.920Z,97515.97
2022-09-15T00:35:44.641Z,97518.25
2022-09-15T00:38:12.944Z,97512.44
2022-09-15T00:40:49.050Z,97513.22
2022-09-15T00:43:17.279Z,97518.41
2022-09-15T00:45:45.058Z,97507.03
2022-09-15T00:48:23.770Z,97508.97
2022-09-15T00:50:56.029Z,97507.69
2022-09-15T00:53:24.410Z,97508.25
2022-09-15T00:55:52.067Z,97499.22
2022-09-15T00:58:35.070Z,97491.03
2022-09-15T01:01:04.624Z,97498.44
2022-09-15T01:03:36.948Z,97492.38
2022-09-15T01:06:24.265Z,97498.94
2022-09-15T01:09:01.988Z,97496.06
2022-09-15T01:11:29.661Z,97502.13
2022-09-15T01:13:56.720Z,97501.84
2022-09-15T01:16:37.226Z,97501.00
2022-09-15T01:19:59.535Z,97498.63
2022-09-15T01:22:38.315Z,97497.09
2022-09-15T01:25:23.602Z,97489.97
2022-09-15T01:28:16.536Z,97492.38
2022-09-15T01:30:59.667Z,97491.16
2022-09-15T01:33:35.455Z,97488.53
2022-09-15T01:36:12.919Z,97487.50
2022-09-15T01:39:01.040Z,97486.94
2022-09-15T01:41:33.655Z,97491.44
2022-09-15T01:44:15.632Z,97491.88
2022-09-15T01:46:47.307Z,97496.38
2022-09-15T01:49:23.524Z,97484.03
2022-09-15T01:51:53.732Z,97487.75
2022-09-15T01:54:24.922Z,97495.72
2022-09-15T01:56:51.756Z,97482.94
2022-09-15T01:59:18.495Z,97470.06
2022-09-15T02:02:04.040Z,97471.94
2022-09-15T02:04:51.353Z,97468.56
2022-09-15T02:07:35.666Z,97478.53
2022-09-15T02:10:17.675Z,97470.69
2022-09-15T02:13:07.512Z,97472.81
2022-09-15T02:15:48.168Z,97470.91
2022-09-15T02:18:32.876Z,97472.50
2022-09-15T02:21:10.261Z,97467.22
2022-09-15T02:23:43.763Z,97455.34
2022-09-15T02:26:15.697Z,97455.34
2022-09-15T02:28:44.680Z,97458.78
2022-09-15T02:31:15.071Z,97459.81
2022-09-15T02:33:49.172Z,97459.56
2022-09-15T02:36:19.994Z,97454.78
2022-09-15T02:38:55.263Z,97451.09
2022-09-15T02:41:23.645Z,97451.94
2022-09-15T02:43:50.632Z,97455.63
2022-09-15T02:46:20.124Z,97447.16
2022-09-15T02:48:46.935Z,97441.91
2022-09-15T02:51:14.472Z,97443.19
2022-09-15T02:53:42.811Z,97439.47
2022-09-15T02:56:10.129Z,97440.28
2022-09-15T02:58:36.885Z,97439.78
2022-09-15T03:01:08.024Z,97433.66
2022-09-15T03:03:35.906Z,97440.78
2022-09-15T03:06:21.153Z,97431.03
2022-09-15T03:08:51.101Z,97433.75
2022-09-15T03:11:20.460Z,97427.13
2022-09-15T03:13:47.794Z,97435.31
2022-09-15T03:16:16.706Z,97431.66
2022-09-15T03:18:46.558Z,97427.97
2022-09-15T03:21:15.088Z,97418.72
2022-09-15T03:23:42.650Z,97419.88
2022-09-15T03:26:10.661Z,97414.53
2022-09-15T03:28:39.097Z,97419.00
2022-09-15T03:31:07.210Z,97424.50
2022-09-15T03:33:34.641Z,97426.63
2022-09-15T03:36:03.168Z,97421.38
2022-09-15T03:38:29.905Z,97420.84
2022-09-15T03:41:04.582Z,97418.50
2022-09-15T03:43:32.492Z,97410.59
2022-09-15T03:46:02.171Z,97411.97
2022-09-15T03:48:32.012Z,97412.75
2022-09-15T03:50:58.968Z,97403.00
2022-09-15T03:53:26.004Z,97393.84
2022-09-15T03:55:52.766Z,97399.88
2022-09-15T03:58:19.659Z,97404.63
2022-09-15T04:00:49.355Z,97406.16
2022-09-15T04:03:16.164Z,97407.69
2022-09-15T04:05:42.859Z,97404.28
2022-09-15T04:08:12.344Z,97410.53
2022-09-15T04:10:40.561Z,97409.13
2022-09-15T04:13:07.777Z,97409.13
2022-09-15T04:15:34.647Z,97406.22
2022-09-15T04:18:01.285Z,97399.38
2022-09-15T04:20:28.048Z,97405.25
2022-09-15T04:22:54.830Z,97404.03
2022-09-15T04:25:21.548Z,97405.63
2022-09-15T04:27:48.314Z,97396.19
2022-09-15T04:30:15.273Z,97400.69
2022-09-15T04:32:42.054Z,97401.16
2022-09-15T04:35:09.156Z,97396.41
2022-09-15T04:37:35.870Z,97400.88
2022-09-15T04:40:03.063Z,97392.22
2022-09-15T04:42:31.255Z,97392.44
2022-09-15T04:44:58.193Z,97398.25
2022-09-15T04:47:24.866Z,97394.56
2022-09-15T04:49:51.644Z,97392.44
2022-09-15T04:52:18.426Z,97387.44
2022-09-15T04:54:45.499Z,97394.03
2022-09-15T04:57:12.293Z,97393.78
2022-09-15T04:59:39.043Z,97399.50
2022-09-15T05:02:06.091Z,97395.03
2022-09-15T05:04:35.324Z,97397.97
2022-09-15T05:07:02.480Z,97400.69
2022-09-15T05:09:31.255Z,97399.88
2022-09-15T05:11:58.521Z,97394.81
2022-09-15T05:14:26.717Z,97391.88
2022-09-15T05:16:53.761Z,97394.28
2022-09-15T05:19:20.691Z,97391.72
2022-09-15T05:21:50.677Z,97379.63
2022-09-15T05:24:17.644Z,97387.16
2022-09-15T05:26:45.741Z,97393.13
2022-09-15T05:29:15.526Z,97387.16
2022-09-15T05:31:42.715Z,97397.69
2022-09-15T05:34:10.509Z,97395.34
2022-09-15T05:36:37.414Z,97399.78
2022-09-15T05:39:04.506Z,97397.69
2022-09-15T05:41:31.462Z,97404.81
2022-09-15T05:43:59.383Z,97401.66
2022-09-15T05:46:28.569Z,97395.91
2022-09-15T05:48:58.170Z,97397.38
2022-09-15T05:51:25.611Z,97395.03
2022-09-15T05:53:55.125Z,97396.31
2022-09-15T05:56:22.381Z,97392.41
2022-09-15T05:58:50.240Z,97388.19
2022-09-15T06:01:29.119Z,97398.44
2022-09-15T06:03:57.252Z,97398.31
2022-09-15T06:06:25.876Z,97391.41
2022-09-15T06:08:59.280Z,97397.97
2022-09-15T06:11:31.368Z,97391.91
2022-09-15T06:14:03.554Z,97384.88
2022-09-15T06:16:35.742Z,97387.28
2022-09-15T06:19:05.645Z,97374.63
2022-09-15T06:21:35.609Z,97382.16
2022-09-15T06:24:04.664Z,97388.84
2022-09-15T06:26:31.550Z,97386.50
2022-09-15T06:29:00.912Z,97397.38
2022-09-15T06:31:30.114Z,97395.25
2022-09-15T06:33:57.908Z,97394.72
2022-09-15T06:36:29.935Z,97392.34
2022-09-15T06:39:00.424Z,97399.50
2022-09-15T06:41:42.630Z,97416.94
2022-09-15T06:44:22.667Z,97429.81
2022-09-15T06:49:38.709Z,97471.94
2022-09-15T06:52:08.448Z,97487.88
2022-09-15T06:54:37.589Z,97500.56
2022-09-15T06:57:07.204Z,97510.31
2022-09-15T06:59:33.972Z,97520.13
2022-09-15T07:02:04.840Z,97531.25
2022-09-15T07:04:39.743Z,97516.56
2022-09-15T07:07:07.123Z,97463.47
2022-09-15T07:09:41.313Z,97477.94
2022-09-15T07:12:08.995Z,97473.53
2022-09-15T07:14:38.434Z,97498.75
2022-09-15T07:17:05.373Z,97509.00
2022-09-15T07:19:32.374Z,97521.63
2022-09-15T07:22:02.196Z,97522.41
2022-09-15T07:24:29.445Z,97519.22
2022-09-15T07:26:56.557Z,97509.78
2022-09-15T07:29:23.596Z,97506.63
2022-09-15T07:31:56.250Z,97520.50
2022-09-15T07:34:25.902Z,97534.63
2022-09-15T07:36:52.862Z,97546.72
2022-09-15T07:39:19.816Z,97552.75
2022-09-15T07:41:46.861Z,97550.91
2022-09-15T07:44:16.165Z,97552.22
2022-09-15T07:46:43.364Z,97563.78
2022-09-15T07:49:10.880Z,97568.22
2022-09-15T07:51:39.256Z,97574.53
2022-09-15T07:54:07.300Z,97574.16
2022-09-15T07:56:45.856Z,97570.91
2022-09-15T07:59:17.850Z,97570.25
2022-09-15T08:01:44.822Z,97576.97
2022-09-15T08:04:11.892Z,97576.09
2022-09-15T08:06:38.797Z,97583.13
2022-09-15T08:09:05.721Z,97581.88
2022-09-15T08:11:32.729Z,97591.22
2022-09-15T08:14:03.276Z,97597.72
2022-09-15T08:16:36.091Z,97609.59
2022-09-15T08:19:04.899Z,97616.28
2022-09-15T08:21:38.412Z,97618.50
2022-09-15T08:24:05.375Z,97618.81
2022-09-15T08:26:32.446Z,97613.69
2022-09-15T08:28:59.625Z,97607.84
2022-09-15T08:31:26.626Z,97602.06
2022-09-15T08:33:57.393Z,97619.75
2022-09-15T08:36:27.762Z,97618.97
2022-09-15T08:38:55.030Z,97622.16
2022-09-15T08:41:29.614Z,97626.09
2022-09-15T08:44:24.751Z,97628.81
2022-09-15T08:46:51.680Z,97625.84
2022-09-15T08:49:47.576Z,97640.53
2022-09-15T08:52:22.045Z,97638.59
2022-09-15T08:54:53.808Z,97643.56
2022-09-15T08:57:24.181Z,97639.50
2022-09-15T08:59:53.507Z,97651.63
2022-09-15T09:02:32.606Z,97661.13
2022-09-15T09:05:37.106Z,97661.09
2022-09-15T09:08:18.152Z,97668.72
2022-09-15T09:11:15.769Z,97669.41
2022-09-15T09:13:52.587Z,97664.75
2022-09-15T09:16:23.247Z,97674.28
2022-09-15T09:19:11.774Z,97667.56
2022-09-15T09:21:44.172Z,97663.03
2022-09-15T09:24:13.765Z,97680.47
2022-09-15T09:26:40.606Z,97671.50
2022-09-15T09:29:20.071Z,97678.06
2022-09-15T09:31:59.217Z,97671.50
2022-09-15T09:34:42.320Z,97668.44
2022-09-15T09:37:12.429Z,97667.13
2022-09-15T09:39:39.369Z,97680.34
2022-09-15T09:42:08.107Z,97681.03
2022-09-15T09:44:35.492Z,97688.63
2022-09-15T09:47:13.801Z,97675.22
2022-09-15T09:49:46.069Z,97677.09
2022-09-15T09:52:12.987Z,97672.81
2022-09-15T09:54:43.578Z,97671.09
2022-09-15T09:57:41.527Z,97675.38
2022-09-15T10:00:30.920Z,97673.59
2022-09-15T10:02:58.345Z,97682.22
2022-09-15T10:05:29.061Z,97683.22
2022-09-15T10:08:04.619Z,97680.41
2022-09-15T10:10:32.594Z,97689.09
2022-09-15T10:13:05.165Z,97682.22
2022-09-15T10:15:37.823Z,97676.47
2022-09-15T10:18:27.494Z,97681.97
2022-09-15T10:20:54.885Z,97686.88
2022-09-15T10:23:25.458Z,97687.69
2022-09-15T10:26:00.496Z,97684.13
2022-09-15T10:28:28.691Z,97694.66
2022-09-15T10:31:15.918Z,97686.28
2022-09-15T10:34:04.634Z,97681.13
2022-09-15T10:36:46.304Z,97684.75
2022-09-15T10:39:37.601Z,97692.41
2022-09-15T10:42:34.233Z,97688.53
2022-09-15T10:45:26.533Z,97694.41
2022-09-15T10:48:08.972Z,97702.28
2022-09-15T10:51:00.084Z,97698.22
2022-09-15T10:54:25.087Z,97694.88
2022-09-15T10:57:43.385Z,97692.28
2022-09-15T11:00:18.006Z,97677.44
2022-09-15T11:02:54.240Z,97679.97
2022-09-15T11:05:33.518Z,97686.94
2022-09-15T11:08:37.720Z,97686.88
2022-09-15T11:11:43.729Z,97682.22
2022-09-15T11:14:48.928Z,97690.31
2022-09-15T11:17:55.537Z,97689.25
2022-09-15T11:20:57.611Z,97683.31
2022-09-15T11:23:40.033Z,97693.72
2022-09-15T11:26:20.656Z,97688.50
2022-09-15T11:29:17.253Z,97691.06
2022-09-15T11:31:46.843Z,97687.72
2022-09-15T11:34:19.029Z,97696.44
2022-09-15T11:37:01.130Z,97698.56
2022-09-15T11:39:49.996Z,97694.63
2022-09-15T11:42:42.639Z,97695.13
2022-09-15T11:45:28.012Z,97701.69
2022-09-15T11:48:18.885Z,97703.91
2022-09-15T11:50:49.500Z,97698.75
2022-09-15T11:53:45.983Z,97700.03
2022-09-15T11:56:28.002Z,97705.06
2022-09-15T11:59:05.658Z,97701.19
2022-09-15T12:01:56.148Z,97699.53
2022-09-15T12:04:32.947Z,97699.03
2022-09-15T12:07:20.251Z,97699.94
2022-09-15T12:09:51.348Z,97698.97
2022-09-15T12:12:21.815Z,97703.56
2022-09-15T12:14:53.002Z,97709.91
2022-09-15T12:17:35.795Z,97716.16
2022-09-15T12:20:12.091Z,97711.34
2022-09-15T12:23:21.482Z,97714.97
2022-09-15T12:26:15.186Z,97709.59
2022-09-15T12:29:02.996Z,97714.38
2022-09-15T12:31:33.924Z,97717.38
2022-09-15T12:34:24.880Z,97720.03
2022-09-15T12:37:19.419Z,97719.09
2022-09-15T12:39:49.351Z,97720.47
2022-09-15T12:42:26.647Z,97712.75
2022-09-15T12:45:19.946Z,97725.94
2022-09-15T12:48:02.233Z,97734.16
2022-09-15T12:50:37.645Z,97731.38
2022-09-15T12:53:17.698Z,97730.91
2022-09-15T12:56:10.134Z,97736.31
2022-09-15T12:58:46.657Z,97729.19
2022-09-15T13:01:23.016Z,97731.03
2022-09-15T13:03:50.277Z,97736.81
2022-09-15T13:06:21.295Z,97741.75
2022-09-15T13:08:50.007Z,97742.88
2022-09-15T13:11:37.562Z,97743.28
2022-09-15T13:14:06.833Z,97744.72
2022-09-15T13:16:46.976Z,97741.78
2022-09-15T13:19:22.517Z,97741.75
2022-09-15T13:22:14.759Z,97739.34
2022-09-15T13:24:59.032Z,97727.16
2022-09-15T13:27:33.342Z,97731.56
2022-09-15T13:30:28.749Z,97736.59
2022-09-15T13:40:00.687Z,97734.00
2022-09-15T13:42:59.423Z,97724.25
2022-09-15T13:45:38.900Z,97716.47
2022-09-15T13:48:43.365Z,97725.94
2022-09-15T13:51:31.565Z,97723.22
2022-09-15T13:54:08.515Z,97721.47
2022-09-15T13:56:39.840Z,97715.03
2022-09-15T13:59:15.464Z,97717.09
2022-09-15T14:01:45.176Z,97711.69
2022-09-15T14:04:17.805Z,97722.44
2022-09-15T14:06:48.105Z,97726.50
2022-09-15T14:09:19.175Z,97724.16
2022-09-15T14:11:55.326Z,97713.91
2022-09-15T14:14:30.197Z,97712.19
2022-09-15T14:16:59.100Z,97712.91
2022-09-15T14:19:40.260Z,97709.03
2022-09-15T14:22:48.829Z,97716.56
2022-09-15T14:25:19.646Z,97716.81
2022-09-15T14:27:49.875Z,97719.34
2022-09-15T14:30:19.683Z,97713.91
2022-09-15T14:32:52.573Z,97728.31
2022-09-15T14:35:26.175Z,97733.78
2022-09-15T14:38:01.124Z,97727.81
2022-09-15T14:40:34.405Z,97726.16
2022-09-15T14:43:01.495Z,97728.75
2022-09-15T14:48:32.301Z,97728.59
2022-09-15T14:51:11.689Z,97725.78
2022-09-15T14:53:43.500Z,97729.72
2022-09-15T14:56:31.945Z,97732.59
2022-09-15T14:59:05.307Z,97722.44
2022-09-15T15:01:37.849Z,97734.41
2022-09-15T15:04:31.492Z,97734.84
2022-09-15T15:07:15.802Z,97739.28
2022-09-15T15:09:49.107Z,97735.00
2022-09-15T15:12:23.784Z,97732.84
2022-09-15T15:14:56.389Z,97733.44
2022-09-15T15:17:44.865Z,97737.34
2022-09-15T15:20:11.734Z,97738.69
2022-09-15T15:22:45.142Z,97747.56
2022-09-15T15:25:32.559Z,97749.75
2022-09-15T15:28:00.864Z,97746.41
2022-09-15T15:30:31.009Z,97740.78
2022-09-15T15:33:27.356Z,97756.91
2022-09-15T15:36:08.897Z,97753.31
2022-09-15T15:38:41.751Z,97754.16
2022-09-15T15:41:21.005Z,97762.91
2022-09-15T15:44:03.589Z,97778.31
2022-09-15T15:46:57.027Z,97776.88
2022-09-15T15:49:32.865Z,97771.50
2022-09-15T15:52:03.433Z,97777.19
2022-09-15T15:54:34.273Z,97774.56
2022-09-15T15:57:23.623Z,97771.94
2022-09-15T15:59:56.104Z,97774.75
2022-09-15T16:02:24.796Z,97785.06
2022-09-15T16:04:52.097Z,97773.69
2022-09-15T16:07:24.111Z,97773.84
2022-09-15T16:09:54.599Z,97774.63
2022-09-15T16:12:21.936Z,97780.47
2022-09-15T16:14:54.023Z,97773.22
2022-09-15T16:17:21.048Z,97779.13
2022-09-15T16:19:50.064Z,97784.81
2022-09-15T16:22:21.046Z,97780.84
2022-09-15T16:24:47.978Z,97797.06
2022-09-15T16:27:17.854Z,97783.88
2022-09-15T16:29:53.939Z,97789.69
2022-09-15T16:32:22.307Z,97794.44
2022-09-15T16:37:38.110Z,97805.09
2022-09-15T16:40:12.903Z,97805.22
2022-09-15T16:42:42.626Z,97809.47
2022-09-15T16:45:21.976Z,97814.53
2022-09-15T16:48:17.194Z,97816.00
2022-09-15T16:51:01.676Z,97813.03
2022-09-15T16:53:55.261Z,97822.78
2022-09-15T16:56:22.603Z,97830.75
2022-09-15T16:58:49.702Z,97830.94
2022-09-15T17:01:33.784Z,97838.00
2022-09-15T17:04:25.235Z,97836.50
2022-09-15T17:07:08.872Z,97845.78
2022-09-15T17:09:39.050Z,97843.16
2022-09-15T17:14:40.317Z,97846.94
2022-09-15T17:17:09.828Z,97850.69
2022-09-15T17:19:38.885Z,97859.91
2022-09-15T17:22:06.392Z,97852.84
2022-09-15T17:24:33.616Z,97857.34
2022-09-15T17:27:00.660Z,97856.31
2022-09-15T17:29:32.338Z,97864.47
2022-09-15T17:32:01.813Z,97865.06
2022-09-15T17:34:31.627Z,97867.19
2022-09-15T17:37:01.559Z,97864.03
2022-09-15T17:39:28.686Z,97864.84
2022-09-15T17:41:59.862Z,97863.78
2022-09-15T17:44:26.809Z,97865.91
2022-09-15T17:46:54.122Z,97865.16
2022-09-15T17:49:20.908Z,97865.69
2022-09-15T17:51:47.947Z,97863.53
2022-09-15T17:54:22.770Z,97858.81
2022-09-15T17:56:54.672Z,97861.69
2022-09-15T17:59:29.589Z,97867.78
2022-09-15T18:01:59.731Z,97871.72
2022-09-15T18:04:32.639Z,97876.16
2022-09-15T18:07:08.424Z,97883.75
2022-09-15T18:09:38.043Z,97889.00
2022-09-15T18:12:07.198Z,97884.81
2022-09-15T18:14:34.052Z,97887.44
2022-09-15T18:17:00.997Z,97887.69
2022-09-15T18:19:30.122Z,97882.69
2022-09-15T18:21:56.970Z,97888.22
2022-09-15T18:24:34.941Z,97885.34
2022-09-15T18:27:02.001Z,97887.44
2022-09-15T18:29:29.076Z,97898.69
2022-09-15T18:32:13.000Z,97894.72
2022-09-15T18:34:40.037Z,97899.97
2022-09-15T18:37:08.028Z,97902.03
2022-09-15T18:39:45.665Z,97906.72
2022-09-15T18:42:14.779Z,97904.34
2022-09-15T18:44:41.766Z,97914.06
2022-09-15T18:47:11.492Z,97908.03
2022-09-15T18:49:44.453Z,97899.63
2022-09-15T18:52:13.532Z,97914.56
2022-09-15T18:54:40.534Z,97921.34
2022-09-15T18:57:07.462Z,97915.06
2022-09-15T18:59:37.085Z,97925.00
2022-09-15T19:02:14.746Z,97932.09
2022-09-15T19:05:00.637Z,97929.22
2022-09-15T19:07:30.441Z,97922.91
2022-09-15T19:10:01.064Z,97920.31
2022-09-15T19:12:38.976Z,97923.75
2022-09-15T19:15:10.909Z,97923.25
2022-09-15T19:17:56.759Z,97928.72
2022-09-15T19:20:33.294Z,97928.19
2022-09-15T19:23:02.774Z,97920.84
2022-09-15T19:25:39.948Z,97922.38
2022-09-15T19:28:07.114Z,97928.38
2022-09-15T19:30:34.648Z,97926.03
2022-09-15T19:33:08.170Z,97933.13
2022-09-15T19:35:46.540Z,97929.16
2022-09-15T19:38:13.438Z,97931.28
2022-09-15T19:40:43.050Z,97944.63
2022-09-15T19:43:14.756Z,97934.94
2022-09-15T19:45:47.859Z,97924.75
2022-09-15T19:48:14.737Z,97923.69
2022-09-15T19:50:43.730Z,97926.03
2022-09-15T19:53:11.951Z,97936.47
2022-09-15T19:55:59.343Z,97931.22
2022-09-15T19:58:29.056Z,97933.53
2022-09-15T20:00:56.836Z,97944.00
2022-09-15T20:03:26.704Z,97940.81
2022-09-15T20:05:56.206Z,97945.28
2022-09-15T20:08:28.992Z,97956.28
2022-09-15T20:10:55.834Z,97948.41
2022-09-15T20:13:47.282Z,97949.75
2022-09-15T20:16:23.692Z,97942.66
2022-09-15T20:18:57.842Z,97949.75
2022-09-15T20:21:48.605Z,97953.66
2022-09-15T20:24:16.512Z,97956.53
2022-09-15T20:26:50.363Z,97963.31
2022-09-15T20:29:17.911Z,97956.47
2022-09-15T20:31:49.297Z,97966.44
2022-09-15T20:34:17.053Z,97971.16
2022-09-15T20:36:44.887Z,97965.34
2022-09-15T20:39:15.099Z,97972.44
2022-09-15T20:41:47.758Z,97964.03
2022-09-15T20:44:23.919Z,97969.00
2022-09-15T20:46:58.767Z,97966.88
2022-09-15T20:49:27.066Z,97962.94
2022-09-15T20:51:57.071Z,97958.97
2022-09-15T20:54:24.282Z,97965.78
2022-09-15T20:56:58.308Z,97968.41
2022-09-15T20:59:26.365Z,97958.47
2022-09-15T21:01:54.659Z,97961.09
2022-09-15T21:04:21.696Z,97956.09
2022-09-15T21:06:49.074Z,97956.34
2022-09-15T21:09:18.280Z,97956.09
2022-09-15T21:11:53.395Z,97958.19
2022-09-15T21:14:23.218Z,97956.09
2022-09-15T21:16:52.902Z,97957.69
2022-09-15T21:19:24.610Z,97956.91
2022-09-15T21:21:58.394Z,97954.53
2022-09-15T21:24:25.428Z,97957.13
2022-09-15T21:27:10.763Z,97967.34
2022-09-15T21:29:37.678Z,97967.03
2022-09-15T21:32:11.065Z,97971.16
2022-09-15T21:34:37.890Z,97972.22
2022-09-15T21:37:07.296Z,97979.28
2022-09-15T21:39:34.629Z,97979.28
2022-09-15T21:42:01.873Z,97979.09
2022-09-15T21:44:28.789Z,97983.06
2022-09-15T21:46:56.862Z,97981.50
2022-09-15T21:49:23.729Z,97975.72
2022-09-15T21:51:50.904Z,97975.25
2022-09-15T21:54:18.146Z,97965.53
2022-09-15T21:56:46.840Z,97961.63
2022-09-15T21:59:13.737Z,97965.31
2022-09-15T22:01:43.569Z,97959.53
2022-09-15T22:04:10.789Z,97960.03
2022-09-15T22:06:40.845Z,97963.72
2022-09-15T22:09:21.510Z,97968.13
2022-09-15T22:11:49.588Z,97973.59
2022-09-15T22:14:16.477Z,97969.69
2022-09-15T22:16:44.051Z,97978.09
2022-09-15T22:19:15.184Z,97978.88
2022-09-15T22:21:45.424Z,97981.00
2022-09-15T22:24:14.253Z,97978.13
2022-09-15T22:26:45.963Z,97984.94
2022-09-15T22:29:15.441Z,97982.59
2022-09-15T22:31:50.393Z,97985.22
2022-09-15T22:34:28.262Z,97988.84
2022-09-15T22:37:03.218Z,97981.25
2022-09-15T22:39:58.781Z,97980.47
2022-09-15T22:42:35.666Z,97981.22
2022-09-15T22:45:06.945Z,97977.78
2022-09-15T22:47:34.498Z,97986.47
2022-09-15T22:50:01.655Z,97983.28
2022-09-15T22:52:29.005Z,97979.06
2022-09-15T22:54:56.955Z,97978.28
2022-09-15T22:57:23.920Z,97981.69
2022-09-15T22:59:53.691Z,97986.41
2022-09-15T23:02:20.600Z,97975.69
2022-09-15T23:04:50.723Z,97981.50
2022-09-15T23:07:20.773Z,97988.16
2022-09-15T23:09:49.898Z,97983.97
2022-09-15T23:12:20.639Z,97983.69
2022-09-15T23:14:52.681Z,97991.81
2022-09-15T23:17:38.303Z,97997.31
2022-09-15T23:20:26.669Z,97989.66
2022-09-15T23:22:59.905Z,97990.47
2022-09-15T23:25:34.958Z,97995.47
2022-09-15T23:28:04.676Z,97992.28
2022-09-15T23:30:38.971Z,97991.19
2022-09-15T23:33:08.628Z,97989.78
2022-09-15T23:35:36.154Z,97985.81
2022-09-15T23:38:03.244Z,97985.81
2022-09-15T23:40:33.245Z,97980.03
2022-09-15T23:43:02.371Z,97980.63
2022-09-15T23:45:35.106Z,97982.19
2022-09-15T23:48:05.324Z,97986.28
2022-09-15T23:50:33.016Z,97978.50
2022-09-15T23:52:59.849Z,97976.75
2022-09-15T23:55:26.803Z,97975.94
2022-09-15T23:57:53.547Z,97976.63
